This is the latest recevied weather packets stored in our database for station/object DO7ZT-13. If no packets are shown the sender has not sent any weather packets the latest 10 day(s).
| Time | Temp. | Humidity | Pressure | Rain* | Wind** | Luminosity | Snow |
|---|---|---|---|---|---|---|---|
| 1777675524 | 7.22° C | 72% | 1025.4 hPa | 0 mm | 0.89 m/s, 155° | - | - |
| 1777675211 | 8.89° C | 64% | 1025.4 hPa | 0 mm | 0 m/s | - | - |
| 1777674924 | 7.78° C | 63% | 1025.4 hPa | 0 mm | 0 m/s | - | - |
| 1777674612 | 7.78° C | 67% | 1025.5 hPa | 0 mm | 0.45 m/s, 120° | - | - |
| 1777674325 | 7.22° C | 72% | 1025.5 hPa | 0 mm | 0.45 m/s, 126° | - | - |
| 1777674012 | 7.22° C | 73% | 1025.5 hPa | 0 mm | 0.45 m/s, 126° | - | - |
| 1777673724 | 7.78° C | 70% | 1025.6 hPa | 0 mm | 0.45 m/s, 126° | - | - |
| 1777673411 | 8.89° C | 68% | 1025.6 hPa | 0 mm | 0.45 m/s, 126° | - | - |
| 1777673124 | 8.89° C | 64% | 1025.6 hPa | 0 mm | 0.45 m/s, 126° | - | - |
| 1777672811 | 8.89° C | 64% | 1025.5 hPa | 0 mm | 0.45 m/s, 126° | - | - |
| 1777672536 | 7.78° C | 65% | 1025.5 hPa | 0 mm | 0.45 m/s, 126° | - | - |
| 1777672224 | 7.78° C | 71% | 1025.5 hPa | 0 mm | 0.45 m/s, 126° | - | - |
| 1777671911 | 7.78° C | 70% | 1025.7 hPa | 0 mm | 0.45 m/s, 126° | - | - |
| 1777671624 | 7.78° C | 69% | 1025.7 hPa | 0 mm | 0.45 m/s, 126° | - | - |
| 1777671311 | 7.78° C | 70% | 1025.7 hPa | 0 mm | 0.45 m/s, 126° | - | - |
| 1777671024 | 8.89° C | 70% | 1025.6 hPa | 0 mm | 0.45 m/s, 126° | - | - |
| 1777670712 | 8.89° C | 66% | 1025.6 hPa | 0 mm | 0.45 m/s, 126° | - | - |
| 1777670424 | 8.89° C | 67% | 1025.6 hPa | 0 mm | 0.45 m/s, 126° | - | - |
| 1777670111 | 8.89° C | 68% | 1025.6 hPa | 0 mm | 0 m/s | - | - |
| 1777669824 | 7.78° C | 70% | 1025.6 hPa | 0 mm | 0.45 m/s, 144° | - | - |
| 1777669511 | 8.89° C | 69% | 1025.6 hPa | 0 mm | 0.45 m/s, 144° | - | - |
| 1777669224 | 7.78° C | 70% | 1025.6 hPa | 0 mm | 0.89 m/s, 134° | - | - |
| 1777668911 | 8.89° C | 68% | 1025.6 hPa | 0 mm | 0.45 m/s, 128° | - | - |
| 1777668624 | 8.89° C | 70% | 1025.6 hPa | 0 mm | 0.45 m/s, 128° | - | - |
| 1777668311 | 8.89° C | 69% | 1025.6 hPa | 0 mm | 0.45 m/s, 126° | - | - |
* Rain latest hour (hover to see other rain measurements)
** Current wind speed in m/s (hover to see current wind gust speed)